sensor_id;sensor_type;location;lat;lon;timestamp;temperature;humidity
21425;DHT22;10873;51.132;16.848;2024-02-26T00:00:11;24.30;45.70
21425;DHT22;10873;51.132;16.848;2024-02-26T00:02:58;24.30;45.70
21425;DHT22;10873;51.132;16.848;2024-02-26T00:05:47;24.30;45.70
21425;DHT22;10873;51.132;16.848;2024-02-26T00:08:14;24.30;45.70
21425;DHT22;10873;51.132;16.848;2024-02-26T00:10:41;24.40;45.70
21425;DHT22;10873;51.132;16.848;2024-02-26T00:13:07;24.40;45.70
21425;DHT22;10873;51.132;16.848;2024-02-26T00:15:34;24.40;45.70
21425;DHT22;10873;51.132;16.848;2024-02-26T00:18:01;24.40;45.70
21425;DHT22;10873;51.132;16.848;2024-02-26T00:20:27;24.40;45.70
21425;DHT22;10873;51.132;16.848;2024-02-26T00:22:54;24.30;45.60
21425;DHT22;10873;51.132;16.848;2024-02-26T00:25:20;24.30;45.70
21425;DHT22;10873;51.132;16.848;2024-02-26T00:27:50;24.30;45.60
21425;DHT22;10873;51.132;16.848;2024-02-26T00:30:17;24.30;45.60
21425;DHT22;10873;51.132;16.848;2024-02-26T00:32:43;24.30;45.60
21425;DHT22;10873;51.132;16.848;2024-02-26T00:35:09;24.30;45.60
21425;DHT22;10873;51.132;16.848;2024-02-26T00:37:35;24.30;45.60
21425;DHT22;10873;51.132;16.848;2024-02-26T00:40:02;24.30;45.60
21425;DHT22;10873;51.132;16.848;2024-02-26T00:42:28;24.30;45.50
21425;DHT22;10873;51.132;16.848;2024-02-26T00:44:55;24.40;45.60
21425;DHT22;10873;51.132;16.848;2024-02-26T00:47:21;24.30;45.50
21425;DHT22;10873;51.132;16.848;2024-02-26T00:49:47;24.30;45.50
21425;DHT22;10873;51.132;16.848;2024-02-26T00:52:13;24.30;45.50
21425;DHT22;10873;51.132;16.848;2024-02-26T00:54:39;24.30;45.50
21425;DHT22;10873;51.132;16.848;2024-02-26T00:57:05;24.30;45.50
21425;DHT22;10873;51.132;16.848;2024-02-26T00:59:32;24.30;45.40
21425;DHT22;10873;51.132;16.848;2024-02-26T01:01:58;24.30;45.50
21425;DHT22;10873;51.132;16.848;2024-02-26T01:04:27;24.30;45.60
21425;DHT22;10873;51.132;16.848;2024-02-26T01:06:53;24.30;45.60
21425;DHT22;10873;51.132;16.848;2024-02-26T01:09:20;24.30;45.70
21425;DHT22;10873;51.132;16.848;2024-02-26T01:11:46;24.30;45.70
21425;DHT22;10873;51.132;16.848;2024-02-26T01:14:13;24.30;45.70
21425;DHT22;10873;51.132;16.848;2024-02-26T01:16:39;24.30;45.70
21425;DHT22;10873;51.132;16.848;2024-02-26T01:19:06;24.30;45.60
21425;DHT22;10873;51.132;16.848;2024-02-26T01:21:32;24.30;45.50
21425;DHT22;10873;51.132;16.848;2024-02-26T01:23:58;24.30;45.50
21425;DHT22;10873;51.132;16.848;2024-02-26T01:26:24;24.30;45.40
21425;DHT22;10873;51.132;16.848;2024-02-26T01:28:51;24.30;45.40
21425;DHT22;10873;51.132;16.848;2024-02-26T01:31:17;24.30;45.30
21425;DHT22;10873;51.132;16.848;2024-02-26T01:33:43;24.30;45.30
21425;DHT22;10873;51.132;16.848;2024-02-26T01:36:09;24.30;45.20
21425;DHT22;10873;51.132;16.848;2024-02-26T01:38:36;24.20;45.20
21425;DHT22;10873;51.132;16.848;2024-02-26T01:41:02;24.30;45.30
21425;DHT22;10873;51.132;16.848;2024-02-26T01:43:28;24.30;45.30
21425;DHT22;10873;51.132;16.848;2024-02-26T01:45:54;24.20;45.30
21425;DHT22;10873;51.132;16.848;2024-02-26T01:48:21;24.30;45.40
21425;DHT22;10873;51.132;16.848;2024-02-26T01:50:47;24.30;45.40
21425;DHT22;10873;51.132;16.848;2024-02-26T01:53:14;24.30;45.40
21425;DHT22;10873;51.132;16.848;2024-02-26T01:55:41;24.30;45.30
21425;DHT22;10873;51.132;16.848;2024-02-26T01:58:08;24.30;45.30
21425;DHT22;10873;51.132;16.848;2024-02-26T02:00:34;24.30;45.20
21425;DHT22;10873;51.132;16.848;2024-02-26T02:03:01;24.30;45.20
21425;DHT22;10873;51.132;16.848;2024-02-26T02:05:29;24.30;45.20
21425;DHT22;10873;51.132;16.848;2024-02-26T02:07:56;24.20;45.10
21425;DHT22;10873;51.132;16.848;2024-02-26T02:10:24;24.20;45.00
21425;DHT22;10873;51.132;16.848;2024-02-26T02:12:51;24.20;45.00
21425;DHT22;10873;51.132;16.848;2024-02-26T02:15:17;24.20;45.10
21425;DHT22;10873;51.132;16.848;2024-02-26T02:17:44;24.20;45.10
21425;DHT22;10873;51.132;16.848;2024-02-26T02:20:15;24.20;45.10
21425;DHT22;10873;51.132;16.848;2024-02-26T02:22:44;24.20;45.10
21425;DHT22;10873;51.132;16.848;2024-02-26T02:25:11;24.20;45.00
21425;DHT22;10873;51.132;16.848;2024-02-26T02:27:38;24.30;45.10
21425;DHT22;10873;51.132;16.848;2024-02-26T02:30:07;24.30;45.10
21425;DHT22;10873;51.132;16.848;2024-02-26T02:32:34;24.30;45.00
21425;DHT22;10873;51.132;16.848;2024-02-26T02:35:01;24.30;45.00
21425;DHT22;10873;51.132;16.848;2024-02-26T02:37:28;24.30;45.00
21425;DHT22;10873;51.132;16.848;2024-02-26T02:39:55;24.30;44.90
21425;DHT22;10873;51.132;16.848;2024-02-26T02:42:24;24.30;44.90
21425;DHT22;10873;51.132;16.848;2024-02-26T02:44:50;24.30;44.90
21425;DHT22;10873;51.132;16.848;2024-02-26T02:47:16;24.30;44.90
21425;DHT22;10873;51.132;16.848;2024-02-26T02:49:42;24.30;44.90
21425;DHT22;10873;51.132;16.848;2024-02-26T02:52:08;24.30;44.90
21425;DHT22;10873;51.132;16.848;2024-02-26T02:54:34;24.20;44.90
21425;DHT22;10873;51.132;16.848;2024-02-26T02:57:04;24.20;45.00
21425;DHT22;10873;51.132;16.848;2024-02-26T02:59:30;24.20;45.00
21425;DHT22;10873;51.132;16.848;2024-02-26T03:01:58;24.20;45.00
21425;DHT22;10873;51.132;16.848;2024-02-26T03:04:26;24.20;45.00
21425;DHT22;10873;51.132;16.848;2024-02-26T03:06:52;24.30;45.00
21425;DHT22;10873;51.132;16.848;2024-02-26T03:09:18;24.30;45.10
21425;DHT22;10873;51.132;16.848;2024-02-26T03:11:45;24.30;45.10
21425;DHT22;10873;51.132;16.848;2024-02-26T03:14:17;24.30;45.00
21425;DHT22;10873;51.132;16.848;2024-02-26T03:16:43;24.30;45.00
21425;DHT22;10873;51.132;16.848;2024-02-26T03:19:09;24.30;45.00
21425;DHT22;10873;51.132;16.848;2024-02-26T03:21:36;24.30;45.00
21425;DHT22;10873;51.132;16.848;2024-02-26T03:24:06;24.30;45.00
21425;DHT22;10873;51.132;16.848;2024-02-26T03:26:32;24.30;45.00
21425;DHT22;10873;51.132;16.848;2024-02-26T03:28:58;24.30;45.00
21425;DHT22;10873;51.132;16.848;2024-02-26T03:31:25;24.30;44.90
21425;DHT22;10873;51.132;16.848;2024-02-26T03:33:51;24.20;45.00
21425;DHT22;10873;51.132;16.848;2024-02-26T03:36:17;24.20;44.90
21425;DHT22;10873;51.132;16.848;2024-02-26T03:38:43;24.20;45.00
21425;DHT22;10873;51.132;16.848;2024-02-26T03:41:10;24.20;45.00
21425;DHT22;10873;51.132;16.848;2024-02-26T03:43:36;24.20;44.90
21425;DHT22;10873;51.132;16.848;2024-02-26T03:46:02;24.20;45.00
21425;DHT22;10873;51.132;16.848;2024-02-26T03:48:29;24.20;45.00
21425;DHT22;10873;51.132;16.848;2024-02-26T03:50:55;24.20;45.70
21425;DHT22;10873;51.132;16.848;2024-02-26T03:53:21;24.20;45.10
21425;DHT22;10873;51.132;16.848;2024-02-26T03:55:48;24.20;45.10
21425;DHT22;10873;51.132;16.848;2024-02-26T03:58:14;24.20;45.10
21425;DHT22;10873;51.132;16.848;2024-02-26T04:00:42;24.20;45.10
21425;DHT22;10873;51.132;16.848;2024-02-26T04:03:08;24.20;45.10
21425;DHT22;10873;51.132;16.848;2024-02-26T04:05:35;24.20;45.00
21425;DHT22;10873;51.132;16.848;2024-02-26T04:08:02;24.20;45.00
21425;DHT22;10873;51.132;16.848;2024-02-26T04:10:30;24.30;45.10
21425;DHT22;10873;51.132;16.848;2024-02-26T04:12:56;24.20;44.90
21425;DHT22;10873;51.132;16.848;2024-02-26T04:15:22;24.20;44.90
21425;DHT22;10873;51.132;16.848;2024-02-26T04:17:48;24.20;44.90
21425;DHT22;10873;51.132;16.848;2024-02-26T04:20:15;24.20;44.90
21425;DHT22;10873;51.132;16.848;2024-02-26T04:22:46;24.20;44.90
21425;DHT22;10873;51.132;16.848;2024-02-26T04:25:12;24.20;44.80
21425;DHT22;10873;51.132;16.848;2024-02-26T04:27:39;24.20;44.90
21425;DHT22;10873;51.132;16.848;2024-02-26T04:30:06;24.20;45.00
21425;DHT22;10873;51.132;16.848;2024-02-26T04:32:32;24.20;45.20
21425;DHT22;10873;51.132;16.848;2024-02-26T04:34:58;24.20;45.20
21425;DHT22;10873;51.132;16.848;2024-02-26T04:37:24;24.20;45.20
21425;DHT22;10873;51.132;16.848;2024-02-26T04:39:51;24.20;45.20
21425;DHT22;10873;51.132;16.848;2024-02-26T04:42:17;24.20;45.20
21425;DHT22;10873;51.132;16.848;2024-02-26T04:44:43;24.20;45.20
21425;DHT22;10873;51.132;16.848;2024-02-26T04:47:09;24.20;45.20
21425;DHT22;10873;51.132;16.848;2024-02-26T04:49:36;24.20;45.20
21425;DHT22;10873;51.132;16.848;2024-02-26T04:52:03;24.20;45.20
21425;DHT22;10873;51.132;16.848;2024-02-26T04:54:29;24.20;45.20
21425;DHT22;10873;51.132;16.848;2024-02-26T04:56:56;24.20;45.20
21425;DHT22;10873;51.132;16.848;2024-02-26T04:59:24;24.20;45.20
21425;DHT22;10873;51.132;16.848;2024-02-26T05:01:50;24.20;45.20
21425;DHT22;10873;51.132;16.848;2024-02-26T05:04:17;24.20;45.20
21425;DHT22;10873;51.132;16.848;2024-02-26T05:06:44;24.20;45.20
21425;DHT22;10873;51.132;16.848;2024-02-26T05:09:10;24.20;45.20
21425;DHT22;10873;51.132;16.848;2024-02-26T05:11:36;24.20;45.20
21425;DHT22;10873;51.132;16.848;2024-02-26T05:14:03;24.20;45.80
21425;DHT22;10873;51.132;16.848;2024-02-26T05:16:29;24.20;45.20
21425;DHT22;10873;51.132;16.848;2024-02-26T05:18:58;24.20;45.20
21425;DHT22;10873;51.132;16.848;2024-02-26T05:21:24;24.20;45.20
21425;DHT22;10873;51.132;16.848;2024-02-26T05:23:50;24.20;45.20
21425;DHT22;10873;51.132;16.848;2024-02-26T05:26:20;24.20;45.20
21425;DHT22;10873;51.132;16.848;2024-02-26T05:28:46;24.20;45.20
21425;DHT22;10873;51.132;16.848;2024-02-26T05:31:17;24.20;45.20
21425;DHT22;10873;51.132;16.848;2024-02-26T05:33:44;24.20;45.10
21425;DHT22;10873;51.132;16.848;2024-02-26T05:36:18;24.20;45.10
21425;DHT22;10873;51.132;16.848;2024-02-26T05:38:45;24.20;45.10
21425;DHT22;10873;51.132;16.848;2024-02-26T05:41:14;24.20;45.50
21425;DHT22;10873;51.132;16.848;2024-02-26T05:43:41;24.20;45.10
21425;DHT22;10873;51.132;16.848;2024-02-26T05:46:09;24.20;45.20
21425;DHT22;10873;51.132;16.848;2024-02-26T05:48:36;24.20;45.20
21425;DHT22;10873;51.132;16.848;2024-02-26T05:51:03;24.20;45.30
21425;DHT22;10873;51.132;16.848;2024-02-26T05:53:30;24.20;45.30
21425;DHT22;10873;51.132;16.848;2024-02-26T05:56:01;24.20;45.30
21425;DHT22;10873;51.132;16.848;2024-02-26T05:58:29;24.20;45.30
21425;DHT22;10873;51.132;16.848;2024-02-26T06:00:58;24.20;45.40
21425;DHT22;10873;51.132;16.848;2024-02-26T06:03:25;24.10;45.30
21425;DHT22;10873;51.132;16.848;2024-02-26T06:05:52;24.10;45.30
21425;DHT22;10873;51.132;16.848;2024-02-26T06:08:22;24.10;45.80
21425;DHT22;10873;51.132;16.848;2024-02-26T06:10:48;24.10;46.50
21425;DHT22;10873;51.132;16.848;2024-02-26T06:13:14;24.20;47.00
21425;DHT22;10873;51.132;16.848;2024-02-26T06:15:42;24.10;47.40
21425;DHT22;10873;51.132;16.848;2024-02-26T06:18:11;24.10;47.70
21425;DHT22;10873;51.132;16.848;2024-02-26T06:20:39;24.10;47.70
21425;DHT22;10873;51.132;16.848;2024-02-26T06:23:07;24.10;47.60
21425;DHT22;10873;51.132;16.848;2024-02-26T06:25:33;24.10;47.40
21425;DHT22;10873;51.132;16.848;2024-02-26T06:28:04;24.10;47.20
21425;DHT22;10873;51.132;16.848;2024-02-26T06:30:33;24.10;47.20
21425;DHT22;10873;51.132;16.848;2024-02-26T06:33:04;24.10;47.00
21425;DHT22;10873;51.132;16.848;2024-02-26T06:35:33;24.10;47.50
21425;DHT22;10873;51.132;16.848;2024-02-26T06:38:00;24.10;46.70
21425;DHT22;10873;51.132;16.848;2024-02-26T06:40:30;24.20;46.70
21425;DHT22;10873;51.132;16.848;2024-02-26T06:42:57;24.20;46.60
21425;DHT22;10873;51.132;16.848;2024-02-26T06:45:23;24.20;46.50
21425;DHT22;10873;51.132;16.848;2024-02-26T06:47:49;24.20;46.50
21425;DHT22;10873;51.132;16.848;2024-02-26T06:50:15;24.10;46.40
21425;DHT22;10873;51.132;16.848;2024-02-26T06:52:44;24.10;46.40
21425;DHT22;10873;51.132;16.848;2024-02-26T06:55:11;24.10;46.30
21425;DHT22;10873;51.132;16.848;2024-02-26T06:57:38;24.10;46.40
21425;DHT22;10873;51.132;16.848;2024-02-26T07:00:05;24.10;46.30
21425;DHT22;10873;51.132;16.848;2024-02-26T07:02:32;24.10;46.40
21425;DHT22;10873;51.132;16.848;2024-02-26T07:04:58;24.10;46.40
21425;DHT22;10873;51.132;16.848;2024-02-26T07:07:24;24.10;46.40
21425;DHT22;10873;51.132;16.848;2024-02-26T07:09:50;24.10;46.30
21425;DHT22;10873;51.132;16.848;2024-02-26T07:12:17;24.20;46.40
21425;DHT22;10873;51.132;16.848;2024-02-26T07:14:46;24.10;46.30
21425;DHT22;10873;51.132;16.848;2024-02-26T07:17:15;24.20;46.30
21425;DHT22;10873;51.132;16.848;2024-02-26T07:19:42;24.20;46.30
21425;DHT22;10873;51.132;16.848;2024-02-26T07:22:08;24.20;46.40
21425;DHT22;10873;51.132;16.848;2024-02-26T07:24:34;24.20;46.40
21425;DHT22;10873;51.132;16.848;2024-02-26T07:27:03;24.20;46.50
21425;DHT22;10873;51.132;16.848;2024-02-26T07:29:29;24.10;46.50
21425;DHT22;10873;51.132;16.848;2024-02-26T07:31:58;24.10;46.50
21425;DHT22;10873;51.132;16.848;2024-02-26T07:34:24;24.10;46.60
21425;DHT22;10873;51.132;16.848;2024-02-26T07:36:55;24.10;46.70
21425;DHT22;10873;51.132;16.848;2024-02-26T07:39:23;24.10;46.80
21425;DHT22;10873;51.132;16.848;2024-02-26T07:41:50;24.10;46.90
21425;DHT22;10873;51.132;16.848;2024-02-26T07:44:18;24.10;46.90
21425;DHT22;10873;51.132;16.848;2024-02-26T07:46:46;24.20;47.10
21425;DHT22;10873;51.132;16.848;2024-02-26T07:49:13;24.20;47.10
21425;DHT22;10873;51.132;16.848;2024-02-26T07:51:39;24.20;47.20
21425;DHT22;10873;51.132;16.848;2024-02-26T07:54:05;24.20;47.20
21425;DHT22;10873;51.132;16.848;2024-02-26T07:56:32;24.20;47.30
21425;DHT22;10873;51.132;16.848;2024-02-26T07:58:58;24.20;47.40
21425;DHT22;10873;51.132;16.848;2024-02-26T08:01:25;24.20;47.40
21425;DHT22;10873;51.132;16.848;2024-02-26T08:03:52;24.20;47.50
21425;DHT22;10873;51.132;16.848;2024-02-26T08:06:19;24.20;48.20
21425;DHT22;10873;51.132;16.848;2024-02-26T08:08:45;24.20;47.60
21425;DHT22;10873;51.132;16.848;2024-02-26T08:11:11;24.20;47.70
21425;DHT22;10873;51.132;16.848;2024-02-26T08:13:39;24.10;47.80
21425;DHT22;10873;51.132;16.848;2024-02-26T08:16:06;24.10;47.90
21425;DHT22;10873;51.132;16.848;2024-02-26T08:18:36;24.20;48.10
21425;DHT22;10873;51.132;16.848;2024-02-26T08:21:06;24.20;48.10
21425;DHT22;10873;51.132;16.848;2024-02-26T08:23:33;24.20;48.10
21425;DHT22;10873;51.132;16.848;2024-02-26T08:26:00;24.20;48.10
21425;DHT22;10873;51.132;16.848;2024-02-26T08:28:50;24.20;48.10
21425;DHT22;10873;51.132;16.848;2024-02-26T08:31:42;24.20;48.10
21425;DHT22;10873;51.132;16.848;2024-02-26T08:34:15;24.30;48.20
21425;DHT22;10873;51.132;16.848;2024-02-26T08:36:45;24.30;48.20
21425;DHT22;10873;51.132;16.848;2024-02-26T08:39:14;24.30;48.20
21425;DHT22;10873;51.132;16.848;2024-02-26T08:41:40;24.30;48.20
21425;DHT22;10873;51.132;16.848;2024-02-26T08:44:11;24.30;48.20
21425;DHT22;10873;51.132;16.848;2024-02-26T08:46:38;24.30;48.20
21425;DHT22;10873;51.132;16.848;2024-02-26T08:49:04;24.30;48.20
21425;DHT22;10873;51.132;16.848;2024-02-26T08:51:34;24.30;48.20
21425;DHT22;10873;51.132;16.848;2024-02-26T08:54:02;24.30;48.20
21425;DHT22;10873;51.132;16.848;2024-02-26T08:56:29;24.30;48.20
21425;DHT22;10873;51.132;16.848;2024-02-26T08:58:56;24.30;48.20
21425;DHT22;10873;51.132;16.848;2024-02-26T09:01:23;24.30;48.20
21425;DHT22;10873;51.132;16.848;2024-02-26T09:03:51;24.30;48.30
21425;DHT22;10873;51.132;16.848;2024-02-26T09:06:25;24.30;48.40
21425;DHT22;10873;51.132;16.848;2024-02-26T09:08:52;24.30;48.50
21425;DHT22;10873;51.132;16.848;2024-02-26T09:11:21;24.30;48.50
21425;DHT22;10873;51.132;16.848;2024-02-26T09:13:48;24.30;48.50
21425;DHT22;10873;51.132;16.848;2024-02-26T09:16:19;24.30;48.50
21425;DHT22;10873;51.132;16.848;2024-02-26T09:18:47;24.40;48.60
21425;DHT22;10873;51.132;16.848;2024-02-26T09:21:16;24.40;48.60
21425;DHT22;10873;51.132;16.848;2024-02-26T09:23:49;24.40;48.60
21425;DHT22;10873;51.132;16.848;2024-02-26T09:26:17;24.50;48.60
21425;DHT22;10873;51.132;16.848;2024-02-26T09:28:47;24.50;48.60
21425;DHT22;10873;51.132;16.848;2024-02-26T09:31:15;24.50;49.00
21425;DHT22;10873;51.132;16.848;2024-02-26T09:33:43;24.50;49.80
21425;DHT22;10873;51.132;16.848;2024-02-26T09:36:13;24.50;50.30
21425;DHT22;10873;51.132;16.848;2024-02-26T09:38:41;24.50;50.60
21425;DHT22;10873;51.132;16.848;2024-02-26T09:41:14;24.50;50.60
21425;DHT22;10873;51.132;16.848;2024-02-26T09:43:43;24.50;50.60
21425;DHT22;10873;51.132;16.848;2024-02-26T09:46:14;24.50;51.30
21425;DHT22;10873;51.132;16.848;2024-02-26T09:48:57;24.50;50.60
21425;DHT22;10873;51.132;16.848;2024-02-26T09:51:25;24.50;50.50
21425;DHT22;10873;51.132;16.848;2024-02-26T09:53:52;24.40;50.30
21425;DHT22;10873;51.132;16.848;2024-02-26T09:56:19;24.50;50.30
21425;DHT22;10873;51.132;16.848;2024-02-26T09:58:49;24.40;50.10
21425;DHT22;10873;51.132;16.848;2024-02-26T10:01:21;24.50;50.10
21425;DHT22;10873;51.132;16.848;2024-02-26T10:03:54;24.50;50.00
21425;DHT22;10873;51.132;16.848;2024-02-26T10:06:21;24.40;49.90
21425;DHT22;10873;51.132;16.848;2024-02-26T10:08:52;24.40;49.80
21425;DHT22;10873;51.132;16.848;2024-02-26T10:11:19;24.40;49.80
21425;DHT22;10873;51.132;16.848;2024-02-26T10:13:46;24.40;49.80
21425;DHT22;10873;51.132;16.848;2024-02-26T10:16:24;24.40;49.70
21425;DHT22;10873;51.132;16.848;2024-02-26T10:18:53;24.40;49.70
21425;DHT22;10873;51.132;16.848;2024-02-26T10:21:21;24.50;49.70
21425;DHT22;10873;51.132;16.848;2024-02-26T10:23:48;24.50;49.70
21425;DHT22;10873;51.132;16.848;2024-02-26T10:26:15;24.50;49.60
21425;DHT22;10873;51.132;16.848;2024-02-26T10:28:42;24.50;49.60
21425;DHT22;10873;51.132;16.848;2024-02-26T10:31:11;24.50;49.50
21425;DHT22;10873;51.132;16.848;2024-02-26T10:33:38;24.50;49.50
21425;DHT22;10873;51.132;16.848;2024-02-26T10:36:08;24.50;49.50
21425;DHT22;10873;51.132;16.848;2024-02-26T10:38:37;24.50;49.40
21425;DHT22;10873;51.132;16.848;2024-02-26T10:41:13;24.50;49.40
21425;DHT22;10873;51.132;16.848;2024-02-26T10:43:42;24.50;49.40
21425;DHT22;10873;51.132;16.848;2024-02-26T10:46:12;24.50;49.30
21425;DHT22;10873;51.132;16.848;2024-02-26T10:48:50;24.50;49.30
21425;DHT22;10873;51.132;16.848;2024-02-26T10:51:24;24.50;49.20
21425;DHT22;10873;51.132;16.848;2024-02-26T10:53:55;24.50;49.20
21425;DHT22;10873;51.132;16.848;2024-02-26T10:56:25;24.50;49.20
21425;DHT22;10873;51.132;16.848;2024-02-26T10:58:53;24.50;49.20
21425;DHT22;10873;51.132;16.848;2024-02-26T11:01:21;24.50;49.20
21425;DHT22;10873;51.132;16.848;2024-02-26T11:03:50;24.50;49.90
21425;DHT22;10873;51.132;16.848;2024-02-26T11:06:21;24.50;49.30
21425;DHT22;10873;51.132;16.848;2024-02-26T11:08:48;24.50;49.20
21425;DHT22;10873;51.132;16.848;2024-02-26T11:11:16;24.50;49.20
21425;DHT22;10873;51.132;16.848;2024-02-26T11:13:44;24.50;49.20
21425;DHT22;10873;51.132;16.848;2024-02-26T11:16:18;24.50;49.20
21425;DHT22;10873;51.132;16.848;2024-02-26T11:18:51;24.50;49.10
21425;DHT22;10873;51.132;16.848;2024-02-26T11:21:20;24.50;49.10
21425;DHT22;10873;51.132;16.848;2024-02-26T11:23:56;24.40;49.00
21425;DHT22;10873;51.132;16.848;2024-02-26T11:26:24;24.40;49.00
21425;DHT22;10873;51.132;16.848;2024-02-26T11:28:53;24.40;49.00
21425;DHT22;10873;51.132;16.848;2024-02-26T11:31:24;24.40;49.00
21425;DHT22;10873;51.132;16.848;2024-02-26T11:33:53;24.40;49.00
21425;DHT22;10873;51.132;16.848;2024-02-26T11:36:23;24.40;49.00
21425;DHT22;10873;51.132;16.848;2024-02-26T11:38:51;24.40;49.00
21425;DHT22;10873;51.132;16.848;2024-02-26T11:41:18;24.40;49.00
21425;DHT22;10873;51.132;16.848;2024-02-26T11:43:52;24.40;49.00
21425;DHT22;10873;51.132;16.848;2024-02-26T11:46:26;24.40;49.00
21425;DHT22;10873;51.132;16.848;2024-02-26T11:48:55;24.40;49.00
21425;DHT22;10873;51.132;16.848;2024-02-26T11:51:26;24.40;49.00
21425;DHT22;10873;51.132;16.848;2024-02-26T11:53:52;24.30;49.00
21425;DHT22;10873;51.132;16.848;2024-02-26T11:56:23;24.30;49.00
21425;DHT22;10873;51.132;16.848;2024-02-26T11:58:56;24.40;49.10
21425;DHT22;10873;51.132;16.848;2024-02-26T12:01:44;24.30;49.00
21425;DHT22;10873;51.132;16.848;2024-02-26T12:04:17;24.30;49.10
21425;DHT22;10873;51.132;16.848;2024-02-26T12:07:02;24.30;49.00
21425;DHT22;10873;51.132;16.848;2024-02-26T12:09:33;24.30;49.00
21425;DHT22;10873;51.132;16.848;2024-02-26T12:12:04;24.30;49.00
21425;DHT22;10873;51.132;16.848;2024-02-26T12:14:33;24.30;49.00
21425;DHT22;10873;51.132;16.848;2024-02-26T12:17:00;24.40;49.00
21425;DHT22;10873;51.132;16.848;2024-02-26T12:19:27;24.30;48.90
21425;DHT22;10873;51.132;16.848;2024-02-26T12:21:54;24.40;48.90
21425;DHT22;10873;51.132;16.848;2024-02-26T12:24:21;24.40;48.90
21425;DHT22;10873;51.132;16.848;2024-02-26T12:26:48;24.40;48.80
21425;DHT22;10873;51.132;16.848;2024-02-26T12:29:14;24.40;48.70
21425;DHT22;10873;51.132;16.848;2024-02-26T12:31:41;24.40;48.70
21425;DHT22;10873;51.132;16.848;2024-02-26T12:34:08;24.40;48.70
21425;DHT22;10873;51.132;16.848;2024-02-26T12:36:36;24.40;48.70
21425;DHT22;10873;51.132;16.848;2024-02-26T12:39:02;24.40;48.60
21425;DHT22;10873;51.132;16.848;2024-02-26T12:41:35;24.40;48.60
21425;DHT22;10873;51.132;16.848;2024-02-26T12:44:02;24.40;48.50
21425;DHT22;10873;51.132;16.848;2024-02-26T12:46:29;24.40;48.50
21425;DHT22;10873;51.132;16.848;2024-02-26T12:48:57;24.40;48.50
21425;DHT22;10873;51.132;16.848;2024-02-26T12:51:25;24.50;48.60
21425;DHT22;10873;51.132;16.848;2024-02-26T12:53:53;24.50;48.60
21425;DHT22;10873;51.132;16.848;2024-02-26T12:56:22;24.40;48.40
21425;DHT22;10873;51.132;16.848;2024-02-26T12:58:50;24.40;48.40
21425;DHT22;10873;51.132;16.848;2024-02-26T13:01:19;24.40;48.30
21425;DHT22;10873;51.132;16.848;2024-02-26T13:03:49;24.40;48.30
21425;DHT22;10873;51.132;16.848;2024-02-26T13:06:18;24.40;48.30
21425;DHT22;10873;51.132;16.848;2024-02-26T13:08:49;24.40;48.20
21425;DHT22;10873;51.132;16.848;2024-02-26T13:11:18;24.40;48.20
21425;DHT22;10873;51.132;16.848;2024-02-26T13:13:48;24.40;48.10
21425;DHT22;10873;51.132;16.848;2024-02-26T13:16:16;24.40;48.10
21425;DHT22;10873;51.132;16.848;2024-02-26T13:18:42;24.40;48.10
21425;DHT22;10873;51.132;16.848;2024-02-26T13:21:14;24.40;48.00
21425;DHT22;10873;51.132;16.848;2024-02-26T13:23:42;24.40;48.00
21425;DHT22;10873;51.132;16.848;2024-02-26T13:26:12;24.40;48.00
21425;DHT22;10873;51.132;16.848;2024-02-26T13:28:38;24.40;48.00
21425;DHT22;10873;51.132;16.848;2024-02-26T13:31:05;24.40;48.10
21425;DHT22;10873;51.132;16.848;2024-02-26T13:33:34;24.40;48.10
21425;DHT22;10873;51.132;16.848;2024-02-26T13:36:02;24.40;48.00
21425;DHT22;10873;51.132;16.848;2024-02-26T13:38:30;24.40;48.10
21425;DHT22;10873;51.132;16.848;2024-02-26T13:40:57;24.40;48.10
21425;DHT22;10873;51.132;16.848;2024-02-26T13:43:23;24.40;48.10
21425;DHT22;10873;51.132;16.848;2024-02-26T13:45:50;24.40;48.20
21425;DHT22;10873;51.132;16.848;2024-02-26T13:48:17;24.40;48.20
21425;DHT22;10873;51.132;16.848;2024-02-26T13:50:47;24.40;48.20
21425;DHT22;10873;51.132;16.848;2024-02-26T13:53:13;24.40;48.20
21425;DHT22;10873;51.132;16.848;2024-02-26T13:55:41;24.50;48.20
21425;DHT22;10873;51.132;16.848;2024-02-26T13:58:12;24.50;48.80
21425;DHT22;10873;51.132;16.848;2024-02-26T14:00:39;24.50;48.10
21425;DHT22;10873;51.132;16.848;2024-02-26T14:03:07;24.50;48.10
21425;DHT22;10873;51.132;16.848;2024-02-26T14:05:33;24.50;48.10
21425;DHT22;10873;51.132;16.848;2024-02-26T14:08:00;24.50;48.10
21425;DHT22;10873;51.132;16.848;2024-02-26T14:10:26;24.50;48.10
21425;DHT22;10873;51.132;16.848;2024-02-26T14:12:52;24.60;48.10
21425;DHT22;10873;51.132;16.848;2024-02-26T14:15:19;24.60;48.10
21425;DHT22;10873;51.132;16.848;2024-02-26T14:17:45;24.60;48.10
21425;DHT22;10873;51.132;16.848;2024-02-26T14:20:11;24.60;48.20
21425;DHT22;10873;51.132;16.848;2024-02-26T14:22:37;24.60;48.20
21425;DHT22;10873;51.132;16.848;2024-02-26T14:25:07;24.60;48.20
21425;DHT22;10873;51.132;16.848;2024-02-26T14:27:35;24.60;48.30
21425;DHT22;10873;51.132;16.848;2024-02-26T14:30:01;24.60;48.30
21425;DHT22;10873;51.132;16.848;2024-02-26T14:32:27;24.60;48.40
21425;DHT22;10873;51.132;16.848;2024-02-26T14:34:55;24.60;48.40
21425;DHT22;10873;51.132;16.848;2024-02-26T14:37:21;24.60;48.40
21425;DHT22;10873;51.132;16.848;2024-02-26T14:39:51;24.60;48.50
21425;DHT22;10873;51.132;16.848;2024-02-26T14:42:19;24.50;48.50
21425;DHT22;10873;51.132;16.848;2024-02-26T14:44:45;24.50;48.50
21425;DHT22;10873;51.132;16.848;2024-02-26T14:47:13;24.50;48.50
21425;DHT22;10873;51.132;16.848;2024-02-26T14:49:40;24.50;48.50
21425;DHT22;10873;51.132;16.848;2024-02-26T14:52:06;24.50;48.50
21425;DHT22;10873;51.132;16.848;2024-02-26T14:54:33;24.50;48.50
21425;DHT22;10873;51.132;16.848;2024-02-26T14:57:03;24.50;48.60
21425;DHT22;10873;51.132;16.848;2024-02-26T14:59:31;24.50;48.60
21425;DHT22;10873;51.132;16.848;2024-02-26T15:01:57;24.50;48.60
21425;DHT22;10873;51.132;16.848;2024-02-26T15:04:24;24.50;48.70
21425;DHT22;10873;51.132;16.848;2024-02-26T15:06:50;24.50;48.60
21425;DHT22;10873;51.132;16.848;2024-02-26T15:09:16;24.50;48.70
21425;DHT22;10873;51.132;16.848;2024-02-26T15:11:42;24.50;48.70
21425;DHT22;10873;51.132;16.848;2024-02-26T15:14:10;24.40;48.70
21425;DHT22;10873;51.132;16.848;2024-02-26T15:16:37;24.50;48.70
21425;DHT22;10873;51.132;16.848;2024-02-26T15:19:03;24.50;48.70